createdAt,value
2022-08-01T00:00:15.692Z,83.80
2022-08-01T00:01:15.656Z,84.09
2022-08-01T00:02:15.894Z,84.47
2022-08-01T00:03:15.572Z,84.38
2022-08-01T00:04:15.789Z,84.47
2022-08-01T00:05:15.491Z,84.95
2022-08-01T00:06:15.595Z,84.56
2022-08-01T00:07:15.408Z,84.66
2022-08-01T00:08:15.815Z,85.10
2022-08-01T00:09:24.132Z,85.30
2022-08-01T00:10:15.310Z,85.58
2022-08-01T00:11:15.634Z,85.49
2022-08-01T00:12:15.436Z,85.34
2022-08-01T00:13:15.167Z,86.07
2022-08-01T00:14:15.249Z,85.58
2022-08-01T00:15:15.089Z,85.30
2022-08-01T00:16:15.262Z,85.49
2022-08-01T00:17:15.010Z,86.16
2022-08-01T00:18:14.969Z,86.07
2022-08-01T00:19:15.303Z,85.68
2022-08-01T00:20:14.888Z,85.97
2022-08-01T00:21:15.091Z,86.55
2022-08-01T00:22:14.810Z,86.26
2022-08-01T00:23:14.900Z,86.07
2022-08-01T00:24:15.595Z,86.65
2022-08-01T00:25:14.919Z,86.65
2022-08-01T00:26:14.649Z,86.55
2022-08-01T00:27:14.722Z,86.83
2022-08-01T00:28:14.573Z,86.35
2022-08-01T00:30:11.861Z,86.83
2022-08-01T00:30:15.076Z,86.74
2022-08-01T00:31:14.751Z,87.51
2022-08-01T00:32:14.404Z,87.12
2022-08-01T00:33:14.590Z,87.18
2022-08-01T00:34:14.322Z,87.70
2022-08-01T00:35:14.283Z,88.04
2022-08-01T00:36:14.394Z,88.04
2022-08-01T00:37:16.061Z,87.56
2022-08-01T00:38:14.394Z,87.95
2022-08-01T00:39:14.119Z,88.14
2022-08-01T00:40:14.203Z,88.04
2022-08-01T00:41:14.041Z,88.04
2022-08-01T00:42:14.240Z,88.24
2022-08-01T00:43:14.068Z,88.04
2022-08-01T00:44:14.039Z,88.04
2022-08-01T00:45:13.881Z,87.37
2022-08-01T00:46:13.844Z,87.37
2022-08-01T00:47:13.798Z,87.37
2022-08-01T00:48:13.854Z,87.66
2022-08-01T00:49:13.923Z,88.43
2022-08-01T00:50:13.865Z,87.95
2022-08-01T00:51:13.641Z,88.33
2022-08-01T00:52:13.599Z,87.37
2022-08-01T00:53:18.571Z,87.85
2022-08-01T00:54:13.752Z,87.85
2022-08-01T00:55:15.209Z,88.04
2022-08-01T00:56:13.457Z,88.53
2022-08-01T00:57:15.003Z,88.24
2022-08-01T00:58:13.356Z,88.33
2022-08-01T00:59:14.196Z,87.85
2022-08-01T01:00:13.273Z,88.71
2022-08-01T01:01:13.370Z,88.53
2022-08-01T01:02:15.817Z,88.53
2022-08-01T01:03:13.151Z,88.62
2022-08-01T01:04:13.121Z,88.67
2022-08-01T01:05:13.362Z,88.91
2022-08-01T01:06:13.034Z,89.10
2022-08-01T01:07:13.184Z,89.29
2022-08-01T01:08:12.953Z,89.29
2022-08-01T01:09:13.033Z,89.10
2022-08-01T01:10:12.988Z,89.20
2022-08-01T01:11:12.834Z,88.53
2022-08-01T01:12:13.003Z,88.43
2022-08-01T01:13:12.784Z,88.43
2022-08-01T01:14:12.817Z,88.53
2022-08-01T01:15:12.668Z,88.43
2022-08-01T01:16:12.821Z,88.43
2022-08-01T01:17:12.586Z,88.62
2022-08-01T01:18:12.635Z,88.81
2022-08-01T01:19:12.698Z,89.20
2022-08-01T01:20:12.468Z,89.29
2022-08-01T01:21:12.425Z,89.39
2022-08-01T01:22:12.456Z,88.96
2022-08-01T01:23:12.353Z,88.71
2022-08-01T01:24:12.473Z,89.01
2022-08-01T01:25:12.300Z,89.29
2022-08-01T01:26:12.227Z,89.20
2022-08-01T01:27:12.184Z,88.91
2022-08-01T01:28:12.306Z,89.49
2022-08-01T01:29:12.107Z,89.10
2022-08-01T01:30:12.309Z,88.53
2022-08-01T01:31:12.168Z,89.10
2022-08-01T01:32:12.129Z,89.10
2022-08-01T01:33:11.937Z,89.20
2022-08-01T01:34:12.141Z,89.29
2022-08-01T01:35:11.865Z,89.01
2022-08-01T01:36:11.949Z,89.20
2022-08-01T01:37:11.962Z,88.91
2022-08-01T01:38:11.744Z,88.53
2022-08-01T01:39:11.972Z,88.71
2022-08-01T01:40:11.660Z,88.24
2022-08-01T01:41:11.788Z,88.53
2022-08-01T01:42:11.842Z,88.53
2022-08-01T01:43:11.534Z,88.33
2022-08-01T01:44:11.598Z,88.91
2022-08-01T01:45:11.456Z,88.33
2022-08-01T01:46:11.608Z,88.62
2022-08-01T01:47:11.378Z,88.33
2022-08-01T01:48:11.627Z,88.81
2022-08-01T01:49:11.372Z,88.04
2022-08-01T01:50:11.432Z,88.24
2022-08-01T01:51:11.213Z,88.14
2022-08-01T01:52:11.446Z,88.14
2022-08-01T01:53:15.057Z,87.95
2022-08-01T01:54:11.309Z,88.04
2022-08-01T01:55:11.057Z,88.14
2022-08-01T01:56:11.272Z,87.85
2022-08-01T01:57:10.970Z,87.95
2022-08-01T01:58:11.113Z,88.04
2022-08-01T01:59:10.903Z,87.85
2022-08-01T02:00:10.856Z,88.09
2022-08-01T02:01:14.717Z,87.99
2022-08-01T02:02:11.225Z,88.09
2022-08-01T02:03:10.914Z,88.18
2022-08-01T02:04:10.974Z,87.51
2022-08-01T02:05:10.722Z,87.70
2022-08-01T02:06:10.626Z,87.60
2022-08-01T02:07:10.737Z,88.28
2022-08-01T02:08:10.526Z,87.80
2022-08-01T02:09:10.759Z,88.09
2022-08-01T02:10:10.445Z,88.09
2022-08-01T02:11:10.403Z,87.99
2022-08-01T02:12:10.958Z,88.47
2022-08-01T02:13:10.579Z,88.18
2022-08-01T02:14:10.285Z,88.09
2022-08-01T02:15:10.394Z,88.38
2022-08-01T02:16:10.204Z,88.57
2022-08-01T02:17:10.162Z,88.57
2022-08-01T02:18:10.410Z,88.67
2022-08-01T02:19:10.087Z,88.95
2022-08-01T02:20:10.225Z,88.85
2022-08-01T02:21:09.997Z,88.67
2022-08-01T02:22:10.234Z,89.15
2022-08-01T02:23:11.310Z,89.05
2022-08-01T02:24:10.058Z,89.34
2022-08-01T02:25:09.840Z,89.53
2022-08-01T02:26:11.689Z,89.29
2022-08-01T02:27:09.762Z,89.58
2022-08-01T02:28:09.724Z,89.20
2022-08-01T02:29:09.695Z,89.49
2022-08-01T02:30:09.882Z,89.39
2022-08-01T02:31:09.593Z,89.58
2022-08-01T02:32:09.692Z,89.78
2022-08-01T02:33:15.494Z,89.58
2022-08-01T02:34:09.514Z,89.68
2022-08-01T02:35:09.709Z,89.20
2022-08-01T02:36:30.521Z,89.10
2022-08-01T02:37:09.359Z,89.78
2022-08-01T02:38:09.550Z,89.20
2022-08-01T02:39:09.271Z,89.01
2022-08-01T02:40:09.237Z,89.10
2022-08-01T02:41:09.349Z,89.10
2022-08-01T02:42:09.473Z,88.62
2022-08-01T02:43:09.362Z,88.91
2022-08-01T02:44:09.065Z,89.20
2022-08-01T02:45:09.029Z,89.20
2022-08-01T02:46:08.994Z,89.01
2022-08-01T02:47:09.400Z,89.29
2022-08-01T02:48:08.907Z,88.81
2022-08-01T02:49:10.114Z,88.53
2022-08-01T02:50:08.831Z,88.43
2022-08-01T02:51:08.789Z,88.24
2022-08-01T02:52:09.184Z,88.33
2022-08-01T02:53:08.824Z,88.04
2022-08-01T02:54:08.665Z,88.81
2022-08-01T02:55:08.836Z,88.53
2022-08-01T02:56:08.688Z,88.43
2022-08-01T02:57:08.542Z,88.43
2022-08-01T02:58:09.676Z,88.71
2022-08-01T02:59:08.477Z,88.53
2022-08-01T03:00:08.662Z,88.14
2022-08-01T03:01:08.565Z,88.24
2022-08-01T03:02:09.013Z,88.24
2022-08-01T03:03:08.418Z,88.43
2022-08-01T03:04:08.258Z,88.24
2022-08-01T03:05:08.495Z,87.85
2022-08-01T03:06:08.349Z,88.43
2022-08-01T03:07:08.307Z,88.43
2022-08-01T03:08:08.098Z,88.14
2022-08-01T03:09:08.053Z,88.24
2022-08-01T03:10:08.128Z,88.24
2022-08-01T03:11:07.975Z,88.14
2022-08-01T03:12:08.281Z,88.43
2022-08-01T03:13:07.915Z,88.43
2022-08-01T03:14:07.854Z,88.57
2022-08-01T03:15:07.820Z,89.01
2022-08-01T03:16:07.969Z,88.62
2022-08-01T03:17:07.731Z,89.35
2022-08-01T03:18:07.979Z,89.15
2022-08-01T03:19:07.656Z,89.15
2022-08-01T03:20:07.616Z,89.54
2022-08-01T03:21:07.794Z,89.15
2022-08-01T03:22:07.882Z,89.44
2022-08-01T03:23:07.604Z,89.64
2022-08-01T03:24:07.665Z,89.06
2022-08-01T03:25:07.413Z,89.44
2022-08-01T03:26:07.376Z,89.92
2022-08-01T03:27:07.426Z,89.64
2022-08-01T03:28:07.294Z,89.92
2022-08-01T03:29:07.480Z,89.73
2022-08-01T03:30:07.503Z,89.92
2022-08-01T03:31:07.839Z,90.02
2022-08-01T03:32:07.421Z,90.12
2022-08-01T03:33:07.376Z,89.92
2022-08-01T03:34:07.061Z,89.92
2022-08-01T03:35:08.218Z,89.92
2022-08-01T03:36:06.961Z,89.44
2022-08-01T03:37:06.924Z,89.92
2022-08-01T03:38:16.049Z,90.02
2022-08-01T03:39:07.058Z,90.02
2022-08-01T03:40:08.033Z,90.02
2022-08-01T03:41:06.860Z,90.12
2022-08-01T03:42:07.099Z,89.83
2022-08-01T03:43:06.671Z,90.41
2022-08-01T03:44:06.834Z,90.41
2022-08-01T03:45:06.612Z,90.12
2022-08-01T03:46:06.661Z,90.12
2022-08-01T03:47:06.513Z,90.12
2022-08-01T03:48:06.472Z,90.21
2022-08-01T03:49:06.480Z,90.50
2022-08-01T03:50:10.687Z,90.69
2022-08-01T03:51:06.527Z,90.41
2022-08-01T03:52:06.743Z,90.79
2022-08-01T03:53:06.266Z,90.12
2022-08-01T03:54:06.233Z,90.31
2022-08-01T03:55:07.321Z,90.59
2022-08-01T03:56:06.151Z,90.12
2022-08-01T03:57:06.314Z,90.31
2022-08-01T03:58:09.652Z,90.55
2022-08-01T03:59:06.175Z,90.69
2022-08-01T04:00:05.996Z,90.79
2022-08-01T04:01:06.199Z,90.55
2022-08-01T04:02:06.186Z,90.45
2022-08-01T04:03:06.156Z,90.75
2022-08-01T04:04:05.834Z,90.84
2022-08-01T04:05:05.779Z,90.84
2022-08-01T04:06:06.021Z,90.84
2022-08-01T04:07:05.985Z,90.65
2022-08-01T04:08:05.662Z,90.75
2022-08-01T04:09:07.219Z,90.26
2022-08-01T04:10:05.574Z,90.65
2022-08-01T04:11:05.557Z,90.45
2022-08-01T04:12:12.404Z,90.36
2022-08-01T04:13:05.455Z,90.21
2022-08-01T04:14:08.611Z,90.45
2022-08-01T04:15:05.370Z,90.17
2022-08-01T04:16:05.436Z,90.36
2022-08-01T04:17:05.486Z,90.26
2022-08-01T04:18:07.391Z,90.36
2022-08-01T04:19:05.210Z,90.17
2022-08-01T04:20:05.385Z,90.45
2022-08-01T04:21:05.131Z,89.98
2022-08-01T04:22:05.272Z,89.78
2022-08-01T04:23:05.065Z,89.78
2022-08-01T04:24:05.177Z,89.69
2022-08-01T04:25:04.969Z,90.07
2022-08-01T04:26:05.226Z,90.41
2022-08-01T04:27:05.048Z,89.92
2022-08-01T04:28:04.846Z,89.69
2022-08-01T04:29:05.014Z,89.92
2022-08-01T04:30:04.767Z,89.64
2022-08-01T04:31:04.819Z,89.15
2022-08-01T04:32:04.962Z,89.44
2022-08-01T04:33:04.644Z,89.92
2022-08-01T04:34:04.616Z,89.73
2022-08-01T04:35:04.849Z,89.73
2022-08-01T04:36:05.177Z,89.73
2022-08-01T04:37:04.861Z,89.92
2022-08-01T04:38:04.448Z,89.15
2022-08-01T04:39:04.408Z,89.15
2022-08-01T04:40:04.360Z,89.15
2022-08-01T04:41:08.618Z,89.54
2022-08-01T04:42:04.436Z,89.92
2022-08-01T04:43:04.500Z,89.64
2022-08-01T04:44:04.196Z,89.73
2022-08-01T04:45:04.154Z,89.83
2022-08-01T04:46:04.312Z,90.12
2022-08-01T04:47:04.071Z,90.02
2022-08-01T04:48:04.386Z,89.92
2022-08-01T04:49:04.283Z,90.02
2022-08-01T04:50:03.951Z,89.92
2022-08-01T04:51:03.910Z,90.12
2022-08-01T04:52:04.341Z,90.02
2022-08-01T04:53:03.841Z,90.21
2022-08-01T04:54:03.960Z,89.64
2022-08-01T04:55:03.774Z,89.83
2022-08-01T04:56:03.706Z,89.83
2022-08-01T04:57:03.782Z,89.06
2022-08-01T04:58:03.657Z,89.35
2022-08-01T04:59:03.999Z,89.35
2022-08-01T05:00:03.583Z,89.15
2022-08-01T05:01:03.642Z,89.10
2022-08-01T05:02:03.710Z,89.39
2022-08-01T05:03:03.616Z,89.29
2022-08-01T05:04:03.381Z,89.01
2022-08-01T05:05:03.634Z,88.53
2022-08-01T05:06:03.326Z,87.95
2022-08-01T05:07:03.255Z,88.62
2022-08-01T05:08:03.235Z,88.43
2022-08-01T05:09:03.455Z,88.33
2022-08-01T05:10:03.134Z,88.62
2022-08-01T05:11:03.278Z,88.53
2022-08-01T05:12:03.540Z,88.24
2022-08-01T05:13:03.016Z,87.95
2022-08-01T05:14:03.086Z,88.53
2022-08-01T05:15:02.945Z,88.81
2022-08-01T05:16:03.103Z,88.14
2022-08-01T05:17:02.857Z,88.24
2022-08-01T05:18:03.114Z,88.04
2022-08-01T05:19:02.777Z,87.85
2022-08-01T05:20:02.924Z,88.24
2022-08-01T05:21:02.703Z,88.24
2022-08-01T05:22:03.046Z,87.37
2022-08-01T05:23:02.609Z,87.12
2022-08-01T05:24:02.798Z,87.12
2022-08-01T05:25:02.610Z,87.51
2022-08-01T05:26:02.756Z,86.93
2022-08-01T05:27:03.398Z,87.22
2022-08-01T05:28:02.680Z,87.03
2022-08-01T05:29:02.378Z,87.22
2022-08-01T05:30:02.339Z,87.51
2022-08-01T05:31:03.413Z,87.60
2022-08-01T05:32:02.506Z,86.88
2022-08-01T05:33:02.401Z,86.78
2022-08-01T05:34:02.169Z,86.88
2022-08-01T05:35:02.474Z,86.49
2022-08-01T05:36:02.088Z,86.98
2022-08-01T05:37:02.223Z,86.63
2022-08-01T05:38:02.044Z,86.15
2022-08-01T05:39:02.238Z,86.05
2022-08-01T05:40:01.923Z,86.15
2022-08-01T05:41:02.050Z,85.57
2022-08-01T05:42:01.843Z,85.28
2022-08-01T05:43:02.070Z,85.09
2022-08-01T05:44:02.008Z,85.03
2022-08-01T05:45:01.876Z,84.75
2022-08-01T05:46:01.934Z,84.07
2022-08-01T05:47:01.658Z,83.88
2022-08-01T05:48:01.602Z,83.69
2022-08-01T05:49:01.758Z,83.20
2022-08-01T05:50:01.756Z,82.96
2022-08-01T05:51:02.738Z,82.76
2022-08-01T05:52:01.449Z,81.99
2022-08-01T05:53:01.407Z,82.09
2022-08-01T05:54:01.529Z,81.90
2022-08-01T05:55:01.330Z,81.32
2022-08-01T05:56:01.551Z,80.83
2022-08-01T05:57:02.654Z,80.35
2022-08-01T05:58:01.357Z,80.10
2022-08-01T05:59:01.173Z,80.10
2022-08-01T06:03:47.067Z,78.46
2022-08-01T06:04:46.683Z,78.85
2022-08-01T06:05:46.882Z,78.56
2022-08-01T06:06:46.595Z,78.94
2022-08-01T06:07:46.683Z,78.66
2022-08-01T06:08:46.514Z,79.04
2022-08-01T06:09:46.499Z,79.04
2022-08-01T06:10:46.434Z,78.27
2022-08-01T06:11:46.506Z,78.31
2022-08-01T06:12:46.357Z,78.21
2022-08-01T06:13:48.251Z,78.41
2022-08-01T06:14:46.283Z,78.11
2022-08-01T06:15:46.381Z,78.59
2022-08-01T06:16:46.461Z,77.92
2022-08-01T06:17:46.388Z,78.44
2022-08-01T06:18:46.349Z,77.96
2022-08-01T06:19:46.077Z,77.67
2022-08-01T06:20:46.166Z,77.67
2022-08-01T06:21:46.015Z,77.32
2022-08-01T06:22:52.471Z,77.13
2022-08-01T06:23:45.958Z,76.55
2022-08-01T06:24:46.203Z,76.26
2022-08-01T06:25:45.842Z,75.87
2022-08-01T06:26:45.801Z,75.29
2022-08-01T06:27:45.765Z,75.33
2022-08-01T06:28:45.911Z,74.17
2022-08-01T06:29:53.312Z,73.88
2022-08-01T06:30:45.647Z,72.91
2022-08-01T06:31:45.726Z,72.66
2022-08-01T06:32:45.571Z,72.27
2022-08-01T06:33:45.747Z,72.85
2022-08-01T06:34:45.527Z,72.85
2022-08-01T06:35:45.760Z,72.17
2022-08-01T06:36:45.423Z,72.21
2022-08-01T06:37:46.791Z,71.53
2022-08-01T06:38:45.346Z,70.47
2022-08-01T06:39:45.581Z,70.37
2022-08-01T06:40:45.263Z,70.37
2022-08-01T06:41:45.396Z,69.92
2022-08-01T06:42:45.196Z,69.05
2022-08-01T06:43:45.147Z,68.56
2022-08-01T06:44:45.116Z,68.27
2022-08-01T06:45:45.217Z,67.50
2022-08-01T06:46:45.044Z,67.79
2022-08-01T06:47:45.437Z,67.63
2022-08-01T06:48:44.961Z,67.24
2022-08-01T06:49:44.921Z,67.53
2022-08-01T06:50:44.882Z,66.08
2022-08-01T06:51:45.055Z,66.08
2022-08-01T06:52:44.825Z,65.98
2022-08-01T06:53:45.095Z,65.98
2022-08-01T06:54:44.730Z,66.56
2022-08-01T06:55:44.699Z,66.56
2022-08-01T06:56:44.884Z,66.27
2022-08-01T06:57:44.623Z,66.85
2022-08-01T06:58:44.900Z,67.34
2022-08-01T06:59:54.323Z,67.53
2022-08-01T07:00:44.561Z,67.63
2022-08-01T07:01:44.719Z,67.72
2022-08-01T07:02:44.432Z,66.27
2022-08-01T07:03:52.804Z,64.34
2022-08-01T07:04:44.357Z,64.72
2022-08-01T07:05:44.544Z,64.14
2022-08-01T07:06:44.546Z,63.65
2022-08-01T07:07:44.242Z,62.88
2022-08-01T07:08:45.377Z,62.88
2022-08-01T07:09:44.165Z,61.91
2022-08-01T07:10:46.429Z,62.69
2022-08-01T07:11:44.228Z,62.01
2022-08-01T07:12:44.057Z,62.20
2022-08-01T07:13:45.820Z,61.91
2022-08-01T07:14:43.979Z,62.79
2022-08-01T07:15:44.206Z,62.79
2022-08-01T07:16:43.912Z,62.46
2022-08-01T07:17:43.882Z,62.49
2022-08-01T07:18:43.833Z,62.98
2022-08-01T07:19:44.027Z,63.07
2022-08-01T07:20:51.857Z,62.98
2022-08-01T07:21:45.203Z,62.17
2022-08-01T07:22:43.847Z,62.75
2022-08-01T07:23:45.964Z,63.07
2022-08-01T07:24:43.605Z,62.98
2022-08-01T07:25:49.458Z,63.24
2022-08-01T07:26:53.494Z,62.66
2022-08-01T07:27:43.488Z,62.85
2022-08-01T07:28:44.013Z,62.95
2022-08-01T07:29:43.427Z,62.85
2022-08-01T07:30:43.488Z,61.98
2022-08-01T07:31:43.340Z,61.98
2022-08-01T07:32:43.511Z,61.69
2022-08-01T07:33:48.516Z,61.69
2022-08-01T07:34:43.521Z,62.07
2022-08-01T07:35:43.183Z,62.27
2022-08-01T07:36:45.379Z,62.01
2022-08-01T07:37:48.712Z,60.43
2022-08-01T07:38:43.356Z,59.56
2022-08-01T07:39:43.027Z,59.66
2022-08-01T07:40:43.021Z,59.69
2022-08-01T07:42:05.394Z,59.30
2022-08-01T07:42:42.923Z,58.91
2022-08-01T07:43:50.660Z,59.49
2022-08-01T07:44:42.840Z,59.49
2022-08-01T07:45:43.251Z,58.91
2022-08-01T07:46:43.202Z,58.62
2022-08-01T07:47:42.734Z,58.14
2022-08-01T07:48:43.013Z,57.45
2022-08-01T07:49:42.699Z,58.26
2022-08-01T07:50:42.823Z,58.26
2022-08-01T07:51:42.574Z,57.78
2022-08-01T07:52:42.559Z,57.78
2022-08-01T07:53:42.842Z,56.81
2022-08-01T07:54:42.462Z,56.51
2022-08-01T07:55:42.646Z,56.23
2022-08-01T07:56:42.390Z,56.71
2022-08-01T07:57:42.364Z,57.12
2022-08-01T07:58:42.313Z,56.54
2022-08-01T07:59:42.470Z,54.99
2022-08-01T08:00:42.235Z,54.02
2022-08-01T08:01:42.741Z,53.34
2022-08-01T08:02:42.185Z,53.83
2022-08-01T08:03:42.122Z,53.83
2022-08-01T08:04:44.648Z,54.90
2022-08-01T08:05:57.730Z,54.31
2022-08-01T08:06:42.012Z,54.50
2022-08-01T08:07:42.122Z,54.92
2022-08-01T08:08:41.981Z,54.72
2022-08-01T08:09:42.140Z,54.36
2022-08-01T08:10:41.863Z,52.64
2022-08-01T08:11:45.859Z,51.21
2022-08-01T08:12:41.783Z,50.48
2022-08-01T08:13:41.962Z,48.39
2022-08-01T08:14:42.182Z,46.95
2022-08-01T08:15:41.672Z,45.61
2022-08-01T08:16:41.775Z,44.58
2022-08-01T08:17:41.622Z,43.82
2022-08-01T08:18:41.690Z,42.89
2022-08-01T08:19:41.527Z,42.25
2022-08-01T08:20:41.544Z,41.68
2022-08-01T08:21:41.605Z,40.25
2022-08-01T08:22:41.418Z,38.43
2022-08-01T08:23:43.523Z,37.29
2022-08-01T08:24:46.669Z,36.42
2022-08-01T08:25:41.541Z,35.55
2022-08-01T08:26:41.387Z,35.67
2022-08-01T08:27:41.450Z,35.00
2022-08-01T08:28:41.221Z,34.23
2022-08-01T08:29:41.360Z,33.95
2022-08-01T08:30:41.156Z,32.39
2022-08-01T08:31:51.735Z,32.03
2022-08-01T08:32:41.175Z,31.24
2022-08-01T08:33:41.069Z,30.47
2022-08-01T08:34:41.190Z,30.78
2022-08-01T08:35:53.783Z,30.60
2022-08-01T08:36:40.945Z,29.72
2022-08-01T08:37:47.687Z,29.44
2022-08-01T08:38:41.063Z,28.65
2022-08-01T08:39:41.741Z,28.66
2022-08-01T08:40:40.815Z,28.28
2022-08-01T08:41:40.832Z,28.00
2022-08-01T08:42:40.751Z,27.80
2022-08-01T08:43:40.843Z,27.02
2022-08-01T08:44:43.642Z,26.92
2022-08-01T08:45:58.917Z,26.74
2022-08-01T08:46:40.627Z,25.66
2022-08-01T08:47:40.669Z,25.96
2022-08-01T08:48:40.683Z,25.87
2022-08-01T08:49:40.550Z,25.39
2022-08-01T08:50:40.691Z,25.00
2022-08-01T08:51:40.480Z,24.01
2022-08-01T08:52:40.502Z,24.22
2022-08-01T08:53:40.414Z,24.42
2022-08-01T08:54:40.371Z,23.82
2022-08-01T08:55:56.416Z,23.61
2022-08-01T08:56:40.311Z,23.82
2022-08-01T08:57:40.538Z,23.12
2022-08-01T08:58:40.246Z,22.61
2022-08-01T08:59:40.347Z,23.22
2022-08-01T09:00:40.192Z,22.83
2022-08-01T09:01:40.363Z,22.94
2022-08-01T09:02:40.119Z,22.74
2022-08-01T09:03:40.243Z,22.95
2022-08-01T09:04:40.062Z,22.96
2022-08-01T09:05:40.028Z,21.97
2022-08-01T09:06:40.002Z,22.18
2022-08-01T09:07:40.203Z,21.98
2022-08-01T09:08:39.938Z,21.49
2022-08-01T09:09:41.680Z,21.19
2022-08-01T09:10:39.872Z,21.47
2022-08-01T09:11:39.843Z,21.08
2022-08-01T09:12:40.033Z,21.37
2022-08-01T09:13:45.355Z,21.87
2022-08-01T09:14:39.846Z,22.37
2022-08-01T09:15:39.721Z,22.47
2022-08-01T09:16:39.856Z,22.06
2022-08-01T09:17:39.662Z,22.85
2022-08-01T09:18:39.668Z,22.86
2022-08-01T09:19:41.431Z,22.75
2022-08-01T09:20:39.683Z,22.56
2022-08-01T09:21:39.545Z,22.88
2022-08-01T09:22:39.510Z,21.99
2022-08-01T09:23:39.485Z,22.00
2022-08-01T09:24:39.461Z,21.01
2022-08-01T09:25:46.125Z,21.12
2022-08-01T09:26:39.399Z,20.73
2022-08-01T09:27:44.398Z,20.92
2022-08-01T09:28:39.341Z,21.03
2022-08-01T09:29:41.113Z,20.73
2022-08-01T09:30:39.289Z,20.95
2022-08-01T09:31:39.662Z,19.96
2022-08-01T09:32:39.235Z,20.16
2022-08-01T09:33:39.265Z,20.07
2022-08-01T09:34:39.175Z,19.85
2022-08-01T09:35:43.823Z,20.06
2022-08-01T09:36:39.124Z,20.06
2022-08-01T09:37:39.291Z,19.76
2022-08-01T09:38:39.070Z,19.96
2022-08-01T09:39:39.045Z,19.84
2022-08-01T09:40:39.022Z,20.24
2022-08-01T09:41:40.319Z,20.14
2022-08-01T09:42:38.965Z,20.23
2022-08-01T09:43:39.337Z,19.75
2022-08-01T09:44:42.847Z,20.06
2022-08-01T09:45:41.292Z,19.88
2022-08-01T09:46:38.944Z,19.89
2022-08-01T09:47:39.122Z,19.38
2022-08-01T09:48:38.959Z,18.29
2022-08-01T09:49:50.420Z,18.39
2022-08-01T09:50:38.767Z,18.19
2022-08-01T09:52:00.884Z,18.10
2022-08-01T09:52:39.058Z,18.12
2022-08-01T09:53:38.799Z,18.12
2022-08-01T09:54:38.662Z,17.12
2022-08-01T09:55:39.013Z,16.42
2022-08-01T09:56:38.814Z,16.72
2022-08-01T09:57:38.650Z,16.41
2022-08-01T09:58:38.825Z,16.82
2022-08-01T09:59:57.231Z,16.63
2022-08-01T10:00:45.204Z,16.82
2022-08-01T10:01:40.545Z,16.83
2022-08-01T10:02:39.674Z,16.64
2022-08-01T10:03:38.477Z,16.22
2022-08-01T10:04:38.667Z,15.92
2022-08-01T10:05:38.404Z,16.31
2022-08-01T10:06:38.513Z,16.41
2022-08-01T10:07:43.493Z,16.01
2022-08-01T10:08:38.386Z,16.60
2022-08-01T10:09:40.669Z,16.39
2022-08-01T10:10:38.444Z,16.30
2022-08-01T10:11:39.176Z,16.41
2022-08-01T10:12:38.449Z,15.63
2022-08-01T10:13:38.426Z,15.83
2022-08-01T10:14:38.290Z,15.62
2022-08-01T10:15:38.234Z,15.62
2022-08-01T10:16:38.377Z,15.42
2022-08-01T10:17:50.044Z,16.03
2022-08-01T10:18:38.082Z,16.03
2022-08-01T10:19:38.052Z,15.53
2022-08-01T10:20:38.053Z,15.53
2022-08-01T10:21:56.294Z,15.44
2022-08-01T10:22:37.984Z,14.84
2022-08-01T10:23:40.766Z,15.34
2022-08-01T10:24:37.937Z,15.66
2022-08-01T10:25:42.042Z,15.47
2022-08-01T10:26:37.889Z,14.97
2022-08-01T10:27:39.822Z,15.08
2022-08-01T10:28:38.678Z,14.47
2022-08-01T10:29:46.176Z,14.67
2022-08-01T10:30:37.935Z,14.06
2022-08-01T10:31:37.791Z,14.36
2022-08-01T10:32:39.838Z,15.07
2022-08-01T10:33:52.790Z,14.56
2022-08-01T10:34:37.709Z,15.27
2022-08-01T10:35:46.556Z,14.87
2022-08-01T10:36:40.909Z,14.66
2022-08-01T10:37:52.165Z,14.96
2022-08-01T10:38:37.621Z,14.67
2022-08-01T10:39:37.700Z,15.07
2022-08-01T10:40:37.570Z,14.96
2022-08-01T10:41:37.709Z,14.96
2022-08-01T10:42:37.538Z,14.75
2022-08-01T10:43:38.544Z,14.75
2022-08-01T10:44:37.477Z,15.34
2022-08-01T10:45:37.534Z,14.75
2022-08-01T10:46:37.584Z,14.96
2022-08-01T10:47:50.870Z,13.96
2022-08-01T10:48:37.386Z,13.76
2022-08-01T10:49:37.598Z,14.15
2022-08-01T10:50:37.338Z,14.97
2022-08-01T10:51:52.796Z,14.87
2022-08-01T10:52:39.651Z,14.76
2022-08-01T10:53:42.437Z,15.07
2022-08-01T10:54:37.411Z,14.76
2022-08-01T10:55:37.222Z,15.17
2022-08-01T10:56:37.610Z,15.17
2022-08-01T10:57:37.179Z,14.87
2022-08-01T10:58:42.611Z,14.47
2022-08-01T10:59:50.888Z,14.36
2022-08-01T11:00:37.117Z,14.36
2022-08-01T11:01:37.806Z,14.47
2022-08-01T11:02:37.245Z,14.06
2022-08-01T11:03:56.004Z,14.36
2022-08-01T11:04:37.025Z,15.06
2022-08-01T11:05:37.067Z,14.84
2022-08-01T11:06:36.981Z,14.75
2022-08-01T11:07:37.113Z,14.83
2022-08-01T11:08:37.087Z,14.81
2022-08-01T11:09:38.022Z,14.30
2022-08-01T11:10:36.882Z,14.09
2022-08-01T11:11:37.443Z,14.79
2022-08-01T11:12:36.906Z,14.50
2022-08-01T11:13:36.969Z,13.60
2022-08-01T11:14:55.154Z,14.30
2022-08-01T11:15:36.782Z,14.61
2022-08-01T11:16:36.745Z,14.42
2022-08-01T11:17:37.643Z,14.53
2022-08-01T11:18:37.862Z,14.13
2022-08-01T11:19:36.755Z,13.93
2022-08-01T11:20:41.646Z,13.64
2022-08-01T11:21:57.178Z,13.05
2022-08-01T11:22:36.777Z,13.05
2022-08-01T11:23:36.624Z,13.76
2022-08-01T11:24:36.793Z,13.56
2022-08-01T11:26:06.166Z,13.34
2022-08-01T11:26:36.550Z,13.73
2022-08-01T11:27:36.617Z,13.93
2022-08-01T11:28:37.054Z,13.64
2022-08-01T11:29:36.620Z,13.73
2022-08-01T11:30:36.426Z,13.72
2022-08-01T11:31:37.787Z,14.41
2022-08-01T11:32:58.668Z,14.90
2022-08-01T11:33:36.360Z,15.19
2022-08-01T11:34:36.456Z,14.87
2022-08-01T11:35:36.310Z,15.56
2022-08-01T11:36:58.502Z,15.75
2022-08-01T11:37:36.267Z,15.25
2022-08-01T11:38:36.239Z,15.66
2022-08-01T11:39:38.781Z,15.56
2022-08-01T11:40:37.315Z,15.47
2022-08-01T11:41:38.507Z,15.48
2022-08-01T11:42:36.304Z,15.18
2022-08-01T11:43:36.159Z,14.89
2022-08-01T11:44:36.104Z,14.87
2022-08-01T11:45:36.107Z,14.67
2022-08-01T11:46:36.128Z,14.18
2022-08-01T11:47:36.522Z,14.38
2022-08-01T11:48:36.142Z,13.79
2022-08-01T11:49:36.230Z,14.18
2022-08-01T11:50:35.958Z,14.47
2022-08-01T11:51:36.165Z,14.78
2022-08-01T11:52:35.907Z,14.58
2022-08-01T11:53:36.629Z,13.98
2022-08-01T11:54:36.188Z,13.98
2022-08-01T11:55:35.859Z,13.87
2022-08-01T11:56:37.557Z,14.58
2022-08-01T11:57:36.089Z,13.67
2022-08-01T11:58:35.767Z,14.16
2022-08-01T11:59:38.204Z,14.26
2022-08-01T12:00:35.722Z,13.87
2022-08-01T12:01:35.694Z,13.57
2022-08-01T12:02:35.785Z,12.79
2022-08-01T12:03:36.046Z,12.08
2022-08-01T12:04:35.627Z,11.79
2022-08-01T12:05:35.654Z,11.79
2022-08-01T12:06:35.578Z,12.09
2022-08-01T12:07:35.550Z,12.49
2022-08-01T12:08:35.687Z,12.98
2022-08-01T12:09:35.502Z,13.17
2022-08-01T12:10:35.685Z,12.67
2022-08-01T12:11:37.246Z,12.87
2022-08-01T12:12:35.429Z,13.17
2022-08-01T12:13:35.553Z,13.09
2022-08-01T12:14:35.511Z,12.08
2022-08-01T12:15:35.362Z,11.58
2022-08-01T12:16:35.530Z,11.99
2022-08-01T12:17:35.313Z,12.48
2022-08-01T12:18:35.302Z,12.48
2022-08-01T12:19:35.344Z,12.68
2022-08-01T12:20:35.244Z,12.18
2022-08-01T12:21:35.356Z,12.38
2022-08-01T12:22:35.200Z,12.98
2022-08-01T12:23:35.385Z,12.88
2022-08-01T12:24:35.175Z,13.18
2022-08-01T12:25:35.182Z,12.79
2022-08-01T12:26:35.105Z,12.59
2022-08-01T12:27:35.196Z,12.40
2022-08-01T12:28:35.057Z,12.60
2022-08-01T12:29:35.028Z,12.41
2022-08-01T12:30:35.280Z,12.21
2022-08-01T12:31:35.434Z,11.42
2022-08-01T12:32:35.940Z,11.62
2022-08-01T12:33:35.284Z,10.93
2022-08-01T12:34:34.915Z,10.74
2022-08-01T12:35:34.886Z,11.14
2022-08-01T12:36:35.086Z,11.24
2022-08-01T12:37:34.918Z,11.35
2022-08-01T12:38:35.072Z,10.55
2022-08-01T12:39:34.802Z,10.55
2022-08-01T12:40:34.882Z,10.85
2022-08-01T12:41:34.750Z,10.85
2022-08-01T12:42:34.864Z,10.85
2022-08-01T12:43:34.708Z,11.26
2022-08-01T12:44:34.909Z,10.25
2022-08-01T12:45:34.670Z,10.27
2022-08-01T12:46:34.644Z,10.57
2022-08-01T12:47:34.646Z,10.98
2022-08-01T12:48:34.734Z,10.47
2022-08-01T12:49:34.613Z,10.88
2022-08-01T12:50:34.749Z,10.68
2022-08-01T12:51:34.533Z,10.28
2022-08-01T12:52:34.518Z,10.69
2022-08-01T12:53:40.433Z,9.88
2022-08-01T12:54:34.577Z,10.58
2022-08-01T12:55:34.853Z,10.77